KWWR/WWR METAR and TAF weather

Enter ICAO airport designator
Station Type Date Time Source
KWWR METAR 2021/09/24 03:10 UTC NOAA

KWWR 240310Z AUTO 17012KT 10SM CLR 21/03 A3003 RMK AO2


Station Type Date Time Source
KWWR Decoded METAR 2021/09/24 03:10 UTC NOAA

Woodward, West Woodward Airport, OK, United States (KWWR) 36-26-12N 099-31-16W 667M
Sep 23, 2021 - 11:10 PM EDT / 2021.09.24 0310 UTC
Wind: from the S (170 degrees) at 14 MPH (12 KT):0
Visibility: 10 mile(s):0
Sky conditions: clear
Temperature: 69 F (21 C)
Dew Point: 37 F (3 C)
Relative Humidity: 30%
Pressure (altimeter): 30.03 in. Hg (1016 hPa)
ob: KWWR 240310Z AUTO 17012KT 10SM CLR 21/03 A3003 RMK AO2
cycle: 3

Station Type Date Time Source
KWWR TAF 2021/09/23 18:27 UTC NOAA

TAF KWWR 231723Z 2318/2418 19018G25KT P6SM FEW250
FM240100 16012KT P6SM SCT250
FM240900 19013KT P6SM SCT250 WS020/21040KT
FM241200 20013G18KT P6SM SCT250

Example: see airport list